Time;durP1;ratioP1;P1;durP2;ratioP2;P2;SDS_P1;SDS_P2;PMS_P1;PMS_P2;Temp;Humidity;BMP_temperature;BMP_pressure;BME280_temperature;BME280_humidity;BME280_pressure;Samples;Min_cycle;Max_cycle;Signal;HPM_P1;HPM_P2
2023/05/21 00:06:39;;;;;;;10.07;6.83;;;;;;;16.25;89.80;94729.13;5015835;28;20761;-83
2023/05/21 00:09:08;;;;;;;8.97;6.83;;;;;;;16.19;89.81;94724.50;5016003;28;20921;-83
2023/05/21 00:11:34;;;;;;;10.43;6.67;;;;;;;16.16;91.28;94716.91;5016127;28;20500;-84
2023/05/21 00:14:01;;;;;;;7.77;6.47;;;;;;;16.13;91.11;94725.19;5016127;28;20441;-83
2023/05/21 00:16:28;;;;;;;8.33;7.43;;;;;;;16.10;91.15;94719.22;5016037;28;20437;-84
2023/05/21 00:18:56;;;;;;;8.40;6.77;;;;;;;16.08;91.12;94715.09;5015696;28;20474;-83
2023/05/21 00:21:24;;;;;;;11.67;7.83;;;;;;;16.07;91.03;94718.72;5015732;28;21185;-84
2023/05/21 00:23:52;;;;;;;11.00;7.83;;;;;;;16.04;91.30;94717.25;5015832;28;20511;-83
2023/05/21 00:26:22;;;;;;;7.67;6.73;;;;;;;16.00;91.24;94701.88;5016235;28;20442;-83
2023/05/21 00:28:49;;;;;;;14.37;7.37;;;;;;;16.00;91.95;94715.13;5015690;28;20442;-84
2023/05/21 00:31:17;;;;;;;6.87;6.20;;;;;;;16.00;91.12;94702.72;5015223;28;20441;-84
2023/05/21 00:33:44;;;;;;;12.33;6.67;;;;;;;15.99;91.46;94706.34;5015526;28;20504;-84
2023/05/21 00:36:13;;;;;;;11.60;6.70;;;;;;;16.00;92.49;94710.66;5015776;28;20512;-84
2023/05/21 00:38:42;;;;;;;8.93;6.67;;;;;;;15.97;91.97;94703.03;5015580;28;20523;-84
2023/05/21 00:51:17;;;;;;;10.63;6.57;;;;;;;15.95;91.17;94698.91;5015344;28;20817;-84
2023/05/21 00:53:45;;;;;;;14.00;7.40;;;;;;;15.95;90.79;94699.75;5015110;28;20454;-84
2023/05/21 00:56:12;;;;;;;8.20;7.40;;;;;;;15.96;90.71;94700.56;5014867;28;20453;-83
2023/05/21 00:58:40;;;;;;;9.47;6.73;;;;;;;15.98;90.22;94701.22;5015161;28;20850;-83
2023/05/21 01:01:12;;;;;;;8.83;6.50;;;;;;;15.96;89.74;94701.38;5014933;28;20912;-83
2023/05/21 01:03:39;;;;;;;8.97;6.27;;;;;;;15.94;89.93;94698.09;4997056;28;20853;-83
2023/05/21 01:06:08;;;;;;;7.60;6.80;;;;;;;15.97;90.10;94700.41;4996802;28;20441;-83
2023/05/21 01:08:37;;;;;;;11.43;6.20;;;;;;;15.97;89.94;94689.81;5014889;28;20540;-83
2023/05/21 01:11:06;;;;;;;9.40;7.83;;;;;;;15.99;91.26;94687.81;5014604;28;20437;-84
2023/05/21 01:13:35;;;;;;;8.77;6.20;;;;;;;15.92;90.52;94694.78;4996629;28;20501;-83
2023/05/21 01:16:05;;;;;;;7.27;6.53;;;;;;;15.89;90.85;94689.78;5014700;28;20495;-83
2023/05/21 01:18:33;;;;;;;10.13;6.60;;;;;;;15.86;90.80;94687.50;5013371;28;20853;-83
2023/05/21 01:34:34;;;;;;;15.10;7.97;;;;;;;15.45;95.31;94670.78;5012944;28;20486;-83
2023/05/21 01:37:08;;;;;;;10.03;8.60;;;;;;;15.51;94.91;94683.34;5013944;28;20935;-83
2023/05/21 01:39:39;;;;;;;9.57;7.50;;;;;;;15.48;94.89;94673.94;5014127;28;20484;-83
2023/05/21 01:42:10;;;;;;;9.20;6.60;;;;;;;15.49;94.48;94672.09;5013939;28;20863;-83
2023/05/21 01:44:37;;;;;;;8.23;7.30;;;;;;;15.57;94.33;94673.91;4996158;28;20488;-83
2023/05/21 01:47:05;;;;;;;10.60;7.50;;;;;;;15.58;93.63;94684.38;5014039;28;20911;-83
2023/05/21 01:49:34;;;;;;;9.47;8.47;;;;;;;15.61;93.99;94676.13;5014157;28;20947;-83
2023/05/21 01:52:01;;;;;;;11.57;7.60;;;;;;;15.65;95.12;94676.63;5014366;28;20487;-83
2023/05/21 01:54:28;;;;;;;8.47;7.60;;;;;;;15.70;95.70;94683.06;5014820;28;20530;-83
2023/05/21 01:56:55;;;;;;;10.37;8.33;;;;;;;15.71;95.58;94681.25;5014502;28;20432;-83
2023/05/21 02:02:43;;;;;;;13.40;8.77;;;;;;;15.74;94.59;94672.97;5013837;28;20475;-84
2023/05/21 02:05:12;;;;;;;10.20;6.60;;;;;;;15.74;93.99;94676.44;5014731;28;20431;-83
2023/05/21 02:07:39;;;;;;;9.73;7.63;;;;;;;15.72;93.53;94673.13;5013900;28;20450;-84
2023/05/21 02:10:07;;;;;;;11.17;6.93;;;;;;;15.72;93.13;94673.13;5013862;28;20432;-84
2023/05/21 02:12:33;;;;;;;10.10;7.10;;;;;;;15.74;92.32;94672.97;4948144;28;20440;-83
2023/05/21 02:15:01;;;;;;;11.73;6.90;;;;;;;15.70;91.96;94671.66;5013569;28;20440;-83
2023/05/21 02:21:19;;;;;;;10.60;7.40;;;;;;;15.65;92.16;94663.38;4990787;28;20500;-83
2023/05/21 02:23:46;;;;;;;9.30;6.80;;;;;;;15.60;92.10;94663.03;4974494;28;21026;-83
2023/05/21 02:26:12;;;;;;;8.17;6.73;;;;;;;15.56;92.29;94659.88;4974637;28;20868;-83
2023/05/21 02:28:39;;;;;;;8.37;6.90;;;;;;;15.57;93.31;94663.34;4974685;28;20501;-83
2023/05/21 02:31:06;;;;;;;7.97;7.17;;;;;;;15.55;92.63;94663.50;4974442;28;20937;-84
2023/05/21 02:33:33;;;;;;;9.73;7.43;;;;;;;15.55;91.75;94663.50;4974535;28;20470;-84
2023/05/21 02:35:59;;;;;;;9.40;6.50;;;;;;;15.52;90.90;94657.72;4974661;28;20489;-84
2023/05/21 02:38:27;;;;;;;7.33;6.47;;;;;;;15.45;91.10;94655.75;4974740;28;20461;-84
2023/05/21 02:40:54;;;;;;;6.30;5.70;;;;;;;15.41;91.00;94656.25;4974314;28;20442;-84
2023/05/21 02:43:21;;;;;;;8.87;6.60;;;;;;;15.42;90.13;94664.00;4974627;28;20971;-84
2023/05/21 02:45:49;;;;;;;14.67;6.20;;;;;;;15.43;90.80;94659.56;4974356;28;20444;-84
2023/05/21 02:48:15;;;;;;;9.52;7.22;;;;;;;15.42;91.15;94664.00;4974605;28;20419;-84
2023/05/21 02:50:42;;;;;;;7.80;7.00;;;;;;;15.43;90.39;94657.72;4974583;28;20214;-83
2023/05/21 02:53:09;;;;;;;17.63;6.73;;;;;;;15.40;90.16;94658.06;4974592;28;20451;-83
2023/05/21 02:55:37;;;;;;;7.20;6.50;;;;;;;15.31;90.32;94664.31;4957225;28;20442;-83
2023/05/21 02:58:04;;;;;;;7.37;6.13;;;;;;;15.30;91.66;94662.66;4974919;28;20811;-84
2023/05/21 03:00:31;;;;;;;10.37;6.47;;;;;;;15.29;92.09;94657.56;4974155;28;20848;-84
2023/05/21 03:02:58;;;;;;;10.10;6.40;;;;;;;15.27;91.95;94660.34;4974445;28;20481;-84
2023/05/21 03:05:24;;;;;;;9.70;6.33;;;;;;;15.28;91.39;94654.06;4974699;28;20487;-84
2023/05/21 03:07:52;;;;;;;8.63;6.80;;;;;;;15.32;92.53;94654.56;4974437;28;20431;-84
2023/05/21 03:10:19;;;;;;;9.43;6.30;;;;;;;15.36;92.53;94659.41;4975301;28;20460;-84
2023/05/21 03:12:47;;;;;;;8.67;6.10;;;;;;;15.38;91.96;94649.47;4956457;28;20455;-84
2023/05/21 03:15:14;;;;;;;8.50;6.90;;;;;;;15.41;92.84;94661.53;4974432;28;20452;-84
2023/05/21 03:17:43;;;;;;;11.43;7.13;;;;;;;15.39;91.98;94653.78;4974364;28;20439;-84
2023/05/21 03:20:14;;;;;;;9.23;7.40;;;;;;;15.38;92.16;94659.22;4974898;28;20441;-84
2023/05/21 03:22:42;;;;;;;9.37;5.67;;;;;;;15.36;92.41;94659.41;4997244;28;20475;-83
2023/05/21 03:25:10;;;;;;;20.63;6.60;;;;;;;15.40;92.94;94668.66;5012995;28;20512;-84
2023/05/21 03:27:36;;;;;;;10.40;6.27;;;;;;;15.41;92.55;94664.19;4980359;28;20449;-84
2023/05/21 03:30:06;;;;;;;7.70;6.23;;;;;;;15.44;91.96;94664.69;5015922;28;20782;-84
2023/05/21 03:32:36;;;;;;;12.73;7.80;;;;;;;15.46;92.01;94667.97;4998012;28;20933;-85
2023/05/21 03:35:03;;;;;;;10.33;6.77;;;;;;;15.57;92.81;94655.41;5016874;28;20435;-86
2023/05/21 03:37:30;;;;;;;7.23;5.63;;;;;;;15.79;99.00;94655.59;5016999;28;20450;-87
2023/05/21 03:39:57;;;;;;;7.13;6.30;;;;;;;16.20;100.00;94670.59;5016622;28;20460;-85
2023/05/21 03:42:24;;;;;;;6.87;6.17;;;;;;;16.22;95.79;94668.59;5016643;28;20442;-85
2023/05/21 03:44:51;;;;;;;8.83;5.90;;;;;;;16.21;92.76;94677.53;5016488;28;20548;-85
2023/05/21 03:47:19;;;;;;;9.43;6.63;;;;;;;16.22;91.77;94681.81;5016670;28;20458;-85
2023/05/21 03:49:45;;;;;;;15.67;6.50;;;;;;;16.20;91.15;94681.16;5016314;28;20454;-85
2023/05/21 03:52:12;;;;;;;7.53;6.70;;;;;;;16.15;90.41;94672.88;5016303;28;20489;-86
2023/05/21 03:54:39;;;;;;;11.53;6.27;;;;;;;16.14;90.70;94671.22;5016504;28;20783;-85
2023/05/21 03:57:06;;;;;;;10.63;7.00;;;;;;;16.09;90.35;94675.22;5017018;28;20916;-86
2023/05/21 03:59:32;;;;;;;11.83;6.53;;;;;;;16.08;90.37;94670.91;5015906;28;20451;-84
2023/05/21 04:01:59;;;;;;;7.00;6.20;;;;;;;16.08;90.89;94670.91;5016216;28;20490;-86
2023/05/21 04:04:28;;;;;;;7.27;6.57;;;;;;;16.13;90.93;94669.59;5016081;28;20881;-86
2023/05/21 04:06:55;;;;;;;11.07;6.13;;;;;;;16.16;90.45;94666.59;5016422;28;20522;-87
2023/05/21 04:09:22;;;;;;;10.83;6.50;;;;;;;16.13;89.71;94674.88;5016776;28;20431;-87
2023/05/21 04:11:49;;;;;;;11.60;6.77;;;;;;;16.14;90.22;94676.53;5015969;28;20927;-86
2023/05/21 04:14:16;;;;;;;8.60;5.57;;;;;;;16.14;90.58;94672.06;5016314;28;20432;-87
2023/05/21 04:16:43;;;;;;;13.00;7.27;;;;;;;16.17;90.74;94676.19;5016373;28;20443;-86
2023/05/21 04:19:10;;;;;;;9.00;6.33;;;;;;;16.15;90.10;94670.22;5015943;28;20485;-86
2023/05/21 04:22:05;;;;;;;8.33;6.30;;;;;;;16.22;90.89;94671.22;5012834;28;20469;-86
2023/05/21 04:24:31;;;;;;;8.23;5.97;;;;;;;16.22;88.71;94673.88;5015763;28;20967;-86
2023/05/21 04:27:00;;;;;;;9.27;6.20;;;;;;;16.16;88.10;94677.19;5016229;28;20438;-86
2023/05/21 04:29:26;;;;;;;11.20;6.03;;;;;;;16.14;87.83;94672.06;5016011;28;20482;-87
2023/05/21 04:31:53;;;;;;;9.23;6.70;;;;;;;16.14;88.63;94676.53;5016004;28;20445;-86
2023/05/21 04:34:20;;;;;;;10.70;7.77;;;;;;;16.13;88.37;94680.16;5015458;28;20449;-86
2023/05/21 04:36:47;;;;;;;8.57;6.10;;;;;;;16.09;88.46;94677.88;5015228;28;20447;-87
2023/05/21 04:39:16;;;;;;;8.07;6.77;;;;;;;16.08;89.46;94678.84;5015165;28;20434;-86
2023/05/21 04:41:43;;;;;;;18.60;6.90;;;;;;;16.08;89.23;94673.56;5014048;28;20849;-86
2023/05/21 04:44:13;;;;;;;10.23;7.33;;;;;;;16.15;89.61;94673.72;5015235;28;20987;-85
2023/05/21 04:53:25;;;;;;;11.23;7.50;;;;;;;16.37;89.04;94672.16;5015332;28;20461;-86
2023/05/21 04:55:53;;;;;;;13.23;8.40;;;;;;;16.98;100.00;94670.59;5015409;28;20487;-84
2023/05/21 04:58:20;;;;;;;8.13;7.33;;;;;;;17.60;99.61;94667.84;5014517;28;20929;-83
2023/05/21 05:00:49;;;;;;;8.37;7.30;;;;;;;18.24;93.17;94663.81;5014386;28;20455;-85
2023/05/21 05:03:16;;;;;;;14.10;6.30;;;;;;;18.36;82.10;94681.94;5014916;28;20446;-85
2023/05/21 05:05:43;;;;;;;6.70;5.97;;;;;;;18.31;81.44;94673.69;5014402;28;20441;-85
2023/05/21 05:08:10;;;;;;;10.77;6.23;;;;;;;18.29;81.28;94681.84;4996468;28;20496;-87
2023/05/21 05:10:37;;;;;;;10.93;6.30;;;;;;;18.23;81.39;94677.28;5015367;28;20441;-86
2023/05/21 05:13:05;;;;;;;9.00;5.87;;;;;;;18.19;81.96;94681.28;5014677;28;20433;-87
2023/05/21 05:15:31;;;;;;;8.60;6.20;;;;;;;18.17;82.06;94673.50;5014473;28;20498;-84
2023/05/21 05:17:58;;;;;;;10.53;5.33;;;;;;;18.18;81.38;94679.63;5014653;28;20500;-85
2023/05/21 05:20:25;;;;;;;11.60;6.13;;;;;;;18.18;81.30;94683.09;5014583;28;20609;-86
2023/05/21 05:22:52;;;;;;;6.43;5.67;;;;;;;18.30;84.47;94680.84;5014217;28;20528;-86
2023/05/21 05:25:19;;;;;;;10.20;6.27;;;;;;;18.46;86.25;94680.66;5013859;28;20483;-85
2023/05/21 05:27:45;;;;;;;12.90;6.87;;;;;;;18.57;85.54;94676.72;5014004;28;20966;-86
2023/05/21 05:30:13;;;;;;;12.63;6.90;;;;;;;18.77;84.29;94690.28;5014220;28;20477;-84
2023/05/21 05:32:40;;;;;;;9.50;6.43;;;;;;;18.87;86.25;94681.03;5014569;28;20486;-86
2023/05/21 05:35:08;;;;;;;30.37;9.17;;;;;;;18.98;84.09;94684.22;5013938;28;20936;-85
2023/05/21 05:37:35;;;;;;;136.93;16.73;;;;;;;19.37;100.00;94667.84;5014265;28;20450;-89
2023/05/21 05:40:03;;;;;;;33.30;8.93;;;;;;;19.39;98.65;94663.19;5015297;28;20489;-89
2023/05/21 05:42:30;;;;;;;6.87;6.10;;;;;;;19.21;85.78;94676.09;5015107;28;20455;-86
2023/05/21 05:44:57;;;;;;;8.97;6.40;;;;;;;19.14;78.68;94678.69;5014211;28;20477;-85
2023/05/21 05:47:27;;;;;;;8.77;6.30;;;;;;;19.25;82.57;94677.38;5014287;28;20510;-87
2023/05/21 05:49:53;;;;;;;9.27;7.40;;;;;;;19.38;83.05;94669.53;5013711;28;20460;-85
2023/05/21 05:52:20;;;;;;;6.47;5.70;;;;;;;19.47;77.71;94677.19;5013027;28;20464;-83
2023/05/21 05:54:47;;;;;;;7.17;6.30;;;;;;;19.65;77.08;94682.09;5014240;28;20451;-84
2023/05/21 05:57:14;;;;;;;8.00;5.90;;;;;;;19.53;74.00;94678.31;5014529;28;20879;-84
2023/05/21 05:59:41;;;;;;;14.30;7.03;;;;;;;19.60;73.55;94671.19;5011432;28;20447;-84
2023/05/21 06:02:07;;;;;;;11.87;6.13;;;;;;;19.70;71.54;94671.72;5013135;28;20465;-83
2023/05/21 06:04:35;;;;;;;11.60;6.40;;;;;;;19.88;72.10;94675.75;5013864;28;20475;-84
2023/05/21 06:07:02;;;;;;;10.23;6.03;;;;;;;20.31;71.38;94673.81;5014254;28;20829;-83
2023/05/21 06:09:29;;;;;;;7.23;6.43;;;;;;;20.50;68.01;94677.66;5014216;28;20918;-83
2023/05/21 06:11:56;;;;;;;9.83;5.80;;;;;;;20.69;69.51;94674.28;5014270;28;20810;-81
2023/05/21 06:14:23;;;;;;;11.23;6.20;;;;;;;21.14;71.38;94666.69;5013875;28;20457;-82
2023/05/21 06:16:49;;;;;;;8.33;5.97;;;;;;;21.63;65.63;94663.72;5014153;28;20429;-82
2023/05/21 06:19:16;;;;;;;6.43;5.83;;;;;;;;;;5013481;28;20452;-83
2023/05/21 06:21:44;;;;;;;9.87;6.90;;;;;;;22.67;59.68;94655.91;5013332;28;20432;-82
2023/05/21 06:24:11;;;;;;;7.50;5.63;;;;;;;22.62;60.53;94658.38;5014841;28;20514;-82
2023/05/21 06:26:37;;;;;;;6.40;5.90;;;;;;;22.53;60.32;94654.28;5014097;28;20501;-83
2023/05/21 06:29:04;;;;;;;10.50;7.00;;;;;;;22.09;58.19;94642.41;5006293;28;20585;-83
2023/05/21 06:31:32;;;;;;;7.13;6.13;;;;;;;21.74;61.32;94654.31;5015445;28;20871;-83
2023/05/21 06:33:59;;;;;;;6.53;5.30;;;;;;;21.69;64.92;94646.09;5014480;28;20498;-83
2023/05/21 06:36:28;;;;;;;6.20;5.70;;;;;;;21.31;66.66;94650.13;5013275;28;20675;-83
2023/05/21 06:38:56;;;;;;;7.20;6.13;;;;;;;21.14;68.13;94638.16;5013757;28;20827;-83
2023/05/21 06:45:01;;;;;;;9.23;6.53;;;;;;;20.41;66.70;94634.34;4993588;28;20545;-84
2023/05/21 06:47:28;;;;;;;11.57;7.00;;;;;;;20.48;69.18;94637.03;4993488;28;20851;-85
2023/05/21 06:49:54;;;;;;;7.17;5.83;;;;;;;20.54;69.63;94638.94;4993327;28;20527;-85
2023/05/21 06:52:21;;;;;;;10.93;6.40;;;;;;;20.19;68.44;94638.06;4993448;28;20436;-84
2023/05/21 06:54:49;;;;;;;9.93;6.50;;;;;;;20.40;70.77;94636.19;4993873;28;20472;-85
2023/05/21 06:57:16;;;;;;;11.40;6.43;;;;;;;20.22;69.03;94633.16;4975835;28;20495;-84
2023/05/21 06:59:43;;;;;;;7.13;6.43;;;;;;;20.72;71.68;94639.22;4994337;28;20445;-84
2023/05/21 07:02:10;;;;;;;12.90;6.27;;;;;;;20.80;63.07;94636.38;4997318;28;20461;-84
2023/05/21 07:04:36;;;;;;;7.03;5.40;;;;;;;21.37;62.97;94637.00;4997168;28;21003;-84
2023/05/21 07:07:04;;;;;;;7.70;6.23;;;;;;;21.93;59.47;94637.44;4997968;28;20454;-85
2023/05/21 07:09:31;;;;;;;11.30;7.00;;;;;;;22.26;59.27;94624.09;4997801;28;20893;-84
2023/05/21 07:12:00;;;;;;;10.03;5.90;;;;;;;22.55;55.59;94637.00;5000912;28;20449;-85
2023/05/21 07:14:26;;;;;;;7.43;5.63;;;;;;;22.26;55.84;94629.44;5001971;28;20551;-85
2023/05/21 07:16:53;;;;;;;7.10;5.63;;;;;;;22.54;57.61;94632.66;5000209;28;20791;-85
2023/05/21 07:19:20;;;;;;;8.23;6.07;;;;;;;22.40;57.92;94638.25;4996891;28;20542;-84
2023/05/21 07:21:47;;;;;;;6.90;5.43;;;;;;;22.25;59.08;94638.47;4997189;28;20444;-84
2023/05/21 07:24:13;;;;;;;5.93;5.23;;;;;;;22.45;57.73;94636.59;4997352;28;20489;-85
2023/05/21 07:26:40;;;;;;;8.23;5.63;;;;;;;22.58;59.41;94627.75;4999470;28;20514;-85
2023/05/21 07:29:08;;;;;;;16.70;5.90;;;;;;;22.56;57.77;94632.47;4979046;28;20522;-85
2023/05/21 07:31:35;;;;;;;8.97;6.60;;;;;;;22.17;57.95;94636.84;4996139;28;20831;-84
2023/05/21 07:34:02;;;;;;;7.20;5.70;;;;;;;22.07;59.51;94630.31;4996382;28;20443;-85
2023/05/21 07:36:29;;;;;;;7.53;6.20;;;;;;;22.37;59.23;94636.84;4996167;28;20531;-84
2023/05/21 07:38:56;;;;;;;9.13;5.57;;;;;;;22.62;58.95;94634.31;4996314;28;20689;-85
2023/05/21 07:41:23;;;;;;;5.53;5.03;;;;;;;22.20;57.55;94644.47;4996825;28;20452;-85
2023/05/21 07:43:50;;;;;;;7.23;6.00;;;;;;;22.35;58.73;94646.91;4996533;28;20452;-85
2023/05/21 07:46:18;;;;;;;6.50;5.80;;;;;;;22.30;58.18;94636.03;4996115;28;20491;-85
2023/05/21 07:48:45;;;;;;;9.33;5.70;;;;;;;21.78;58.99;94642.19;4995539;28;20950;-85
2023/05/21 07:51:12;;;;;;;9.17;5.60;;;;;;;21.53;60.23;94644.63;4996274;28;20481;-84
2023/05/21 07:53:39;;;;;;;15.40;6.50;;;;;;;21.01;59.30;94638.09;4995980;28;20847;-84
2023/05/21 07:56:09;;;;;;;6.77;5.00;;;;;;;20.91;59.49;94635.81;4996030;28;20454;-85
2023/05/21 07:58:35;;;;;;;7.40;5.47;;;;;;;20.96;58.73;94635.22;4995544;28;20451;-84
2023/05/21 08:01:02;;;;;;;6.20;4.83;;;;;;;21.09;56.19;94629.09;4995592;28;20512;-85
2023/05/21 08:03:30;;;;;;;6.70;5.53;;;;;;;21.46;55.47;94647.28;4995326;28;20462;-85
2023/05/21 08:05:57;;;;;;;11.10;5.40;;;;;;;21.50;55.14;94631.69;4995074;28;20495;-84
2023/05/21 08:08:24;;;;;;;7.63;5.07;;;;;;;21.91;55.06;94628.81;4995233;28;20453;-85
2023/05/21 08:10:50;;;;;;;12.23;5.90;;;;;;;22.29;56.70;94617.53;4995301;28;20505;-85
2023/05/21 08:13:18;;;;;;;9.00;5.63;;;;;;;22.63;55.21;94622.56;4994993;28;20506;-85
2023/05/21 08:15:44;;;;;;;10.00;4.60;;;;;;;22.28;50.45;94618.56;4995644;28;20460;-85
2023/05/21 08:18:11;;;;;;;8.17;5.40;;;;;;;22.23;53.91;94622.66;4995115;28;20487;-84
2023/05/21 08:20:40;;;;;;;9.47;4.50;;;;;;;21.68;52.49;94628.41;4995269;28;20445;-85
2023/05/21 08:23:06;;;;;;;6.40;5.20;;;;;;;21.10;51.71;94620.88;4976373;28;20475;-84
2023/05/21 08:25:33;;;;;;;7.93;4.90;;;;;;;21.06;53.93;94630.31;4994985;28;20487;-84
2023/05/21 08:28:00;;;;;;;5.37;4.77;;;;;;;21.09;52.94;94624.56;4976916;28;20501;-85
2023/05/21 08:30:27;;;;;;;7.13;4.77;;;;;;;21.12;53.93;94624.19;4960616;28;20460;-85
2023/05/21 08:32:54;;;;;;;6.93;5.27;;;;;;;20.88;54.66;94622.06;4994855;28;20446;-85
2023/05/21 08:35:21;;;;;;;8.50;4.67;;;;;;;20.68;56.01;94635.31;4994673;28;20540;-84
2023/05/21 08:37:49;;;;;;;8.00;5.13;;;;;;;20.78;58.25;94633.09;4994809;28;20508;-84
2023/05/21 08:40:16;;;;;;;13.43;4.73;;;;;;;20.74;54.58;94626.50;4994704;28;20807;-84
2023/05/21 08:42:45;;;;;;;6.27;5.27;;;;;;;20.87;56.11;94620.41;4994720;28;20449;-85
2023/05/21 08:45:13;;;;;;;9.30;5.20;;;;;;;20.93;55.07;94630.28;4994261;28;20493;-85
2023/05/21 08:47:43;;;;;;;6.10;4.90;;;;;;;20.67;55.16;94629.16;4994288;28;20531;-85
2023/05/21 08:50:11;;;;;;;9.90;6.27;;;;;;;20.98;56.12;94625.97;4994490;28;21013;-85
2023/05/21 08:52:38;;;;;;;14.17;5.77;;;;;;;21.03;55.55;94615.53;4994136;28;20455;-84
2023/05/21 08:55:08;;;;;;;9.63;4.60;;;;;;;21.37;57.01;94629.81;4994263;28;20458;-85
2023/05/21 08:57:35;;;;;;;7.20;5.03;;;;;;;21.65;54.50;94619.78;4976069;28;20446;-84
2023/05/21 09:00:03;;;;;;;5.97;5.13;;;;;;;21.81;51.88;94631.91;4975904;28;20446;-85
2023/05/21 09:02:34;;;;;;;6.70;4.80;;;;;;;22.17;54.04;94623.50;4994465;28;20483;-85
2023/05/21 09:05:02;;;;;;;11.87;4.83;;;;;;;22.01;54.73;94633.78;4994204;28;20530;-85
2023/05/21 09:07:30;;;;;;;6.00;4.80;;;;;;;21.57;49.60;94627.16;4994699;28;20457;-84
2023/05/21 09:10:00;;;;;;;7.43;4.43;;;;;;;21.50;51.10;94635.19;4994106;28;20454;-85
2023/05/21 09:12:28;;;;;;;5.00;4.10;;;;;;;21.61;49.84;94650.59;4993882;28;20854;-85
2023/05/21 09:14:57;;;;;;;5.90;4.50;;;;;;;21.28;48.26;94647.03;4994168;28;20512;-85
2023/05/21 09:17:24;;;;;;;10.47;4.00;;;;;;;21.06;48.75;94642.84;4994985;28;20451;-85
2023/05/21 09:20:18;;;;;;;7.90;4.60;;;;;;;21.43;50.06;94637.03;4995278;28;20522;-85
2023/05/21 09:22:46;;;;;;;10.73;4.37;;;;;;;21.51;46.72;94636.00;4973689;28;20483;-85
2023/05/21 09:25:15;;;;;;;4.90;4.20;;;;;;;21.74;47.32;94635.63;4972854;28;20480;-85
2023/05/21 09:27:44;;;;;;;7.17;4.47;;;;;;;21.98;46.34;94628.84;4973483;28;20553;-84
2023/05/21 09:30:12;;;;;;;6.23;4.60;;;;;;;21.95;45.87;94625.53;4973233;28;20506;-85
2023/05/21 09:32:39;;;;;;;6.60;4.30;;;;;;;21.94;45.77;94628.41;4973352;28;20504;-89
2023/05/21 09:35:11;;;;;;;4.33;3.93;;;;;;;21.84;44.96;94628.81;4975250;28;20835;-90
2023/05/21 09:37:38;;;;;;;8.93;3.90;;;;;;;21.65;43.68;94637.66;4977584;28;20433;-89
2023/05/21 09:40:12;;;;;;;9.53;5.13;;;;;;;21.60;44.73;94619.56;4976684;28;20486;-89
2023/05/21 09:42:40;;;;;;;7.10;4.93;;;;;;;21.66;45.27;94612.59;4975458;28;20438;-87
2023/05/21 09:45:09;;;;;;;8.60;3.97;;;;;;;21.86;44.21;94608.06;4973066;28;20483;-87
2023/05/21 09:47:42;;;;;;;7.17;5.30;;;;;;;21.92;45.89;94609.91;4973544;28;20426;-87
2023/05/21 09:50:10;;;;;;;5.83;4.37;;;;;;;21.53;44.76;94620.59;4973026;28;20455;-84
2023/05/21 09:52:37;;;;;;;6.33;4.50;;;;;;;21.42;44.10;94614.03;4973376;28;20532;-85
2023/05/21 09:55:04;;;;;;;11.17;5.20;;;;;;;21.59;52.31;94609.91;4973143;28;20782;-85
2023/05/21 09:57:31;;;;;;;6.37;4.50;;;;;;;21.63;45.93;94613.81;4974924;28;20443;-85
2023/05/21 09:59:58;;;;;;;6.17;4.13;;;;;;;21.78;44.49;94608.28;5006634;28;20493;-86
2023/05/21 10:02:26;;;;;;;7.30;5.30;;;;;;;21.99;44.37;94603.75;5013914;28;20443;-86
2023/05/21 10:04:54;;;;;;;9.00;5.10;;;;;;;22.16;42.15;94597.78;4995801;28;20502;-86
2023/05/21 10:07:24;;;;;;;7.23;4.43;;;;;;;22.05;41.57;94595.78;5014146;28;20528;-84
2023/05/21 10:09:54;;;;;;;7.03;4.60;;;;;;;22.10;43.92;94598.63;5013986;28;20441;-86
2023/05/21 10:12:23;;;;;;;7.30;4.20;;;;;;;21.98;43.70;94597.59;4996073;28;20451;-84
2023/05/21 10:14:54;;;;;;;11.10;5.20;;;;;;;21.87;42.94;94598.22;5014729;28;20504;-82
2023/05/21 10:17:23;;;;;;;6.60;4.33;;;;;;;21.67;42.81;94605.38;5015061;28;20436;-82
2023/05/21 10:19:52;;;;;;;5.40;4.40;;;;;;;21.71;43.12;94593.28;5017245;28;20446;-82
2023/05/21 10:22:19;;;;;;;7.57;5.03;;;;;;;21.55;44.51;94595.34;5017765;28;20445;-82
2023/05/21 10:24:47;;;;;;;9.60;4.73;;;;;;;21.25;46.33;94594.06;5018151;28;20512;-82
2023/05/21 10:27:14;;;;;;;16.63;5.40;;;;;;;21.36;47.18;94590.78;5015294;28;20540;-84
2023/05/21 10:29:43;;;;;;;7.43;4.67;;;;;;;21.09;45.76;94594.41;5018992;28;20452;-83
2023/05/21 10:32:12;;;;;;;5.60;4.17;;;;;;;20.91;47.23;94587.81;5017928;28;20959;-85
2023/05/21 10:34:39;;;;;;;8.07;4.80;;;;;;;21.02;48.62;94589.88;5035364;28;20918;-84
2023/05/21 10:37:09;;;;;;;6.43;4.47;;;;;;;20.98;47.51;94579.81;5023077;28;20509;-82
2023/05/21 10:39:38;;;;;;;7.57;4.80;;;;;;;20.97;48.02;94579.00;5023848;28;20798;-81
2023/05/21 10:42:16;;;;;;;11.70;4.97;;;;;;;20.94;48.62;94583.91;5023014;28;20451;-81
2023/05/21 10:44:56;;;;;;;9.40;4.27;;;;;;;21.01;48.40;94574.88;5021078;28;20999;-83
2023/05/21 10:47:47;;;;;;;9.23;5.07;;;;;;;21.00;49.83;94572.44;5017632;28;21207;-83
2023/05/21 10:50:39;;;;;;;5.10;4.60;;;;;;;20.95;50.16;94573.03;5020356;28;20453;-82
2023/05/21 10:53:16;;;;;;;9.67;5.20;;;;;;;20.81;50.47;94568.66;5017822;28;20487;-83
2023/05/21 10:55:57;;;;;;;8.63;5.00;;;;;;;20.77;50.46;94572.75;5017165;28;20846;-83
2023/05/21 10:58:50;;;;;;;18.23;5.50;;;;;;;20.87;50.82;94573.22;5017330;28;20539;-84
2023/05/21 11:01:18;;;;;;;5.70;5.10;;;;;;;20.91;50.87;94563.78;4999227;28;20504;-82
2023/05/21 11:03:47;;;;;;;7.57;4.50;;;;;;;21.06;50.37;94571.63;5017447;28;20434;-83
2023/05/21 11:06:23;;;;;;;9.53;4.97;;;;;;;21.20;51.95;94569.81;5017078;28;20576;-84
2023/05/21 11:08:52;;;;;;;6.67;5.10;;;;;;;21.25;49.19;94567.38;5017266;28;20985;-83
2023/05/21 11:14:42;;;;;;;11.90;6.20;;;;;;;21.89;50.08;94559.56;5015652;28;20437;-83
2023/05/21 11:17:13;;;;;;;11.43;5.60;;;;;;;22.22;47.60;94554.19;5018277;28;20453;-82
2023/05/21 11:19:42;;;;;;;7.63;5.27;;;;;;;22.30;46.63;94545.13;5016890;28;20539;-82
2023/05/21 11:22:10;;;;;;;7.37;5.30;;;;;;;22.29;47.44;94545.34;5016983;28;20462;-82
2023/05/21 11:24:42;;;;;;;12.40;5.20;;;;;;;22.12;46.73;94545.78;5016469;28;20800;-83
2023/05/21 11:27:11;;;;;;;9.97;5.13;;;;;;;22.08;45.89;94546.44;5017177;28;20561;-82
2023/05/21 11:29:40;;;;;;;6.90;5.67;;;;;;;22.01;46.58;94549.09;5016620;28;20465;-82
2023/05/21 11:32:09;;;;;;;14.77;6.70;;;;;;;21.93;48.68;94541.25;5016924;28;20451;-83
2023/05/21 11:34:46;;;;;;;9.33;5.50;;;;;;;21.89;47.14;94540.03;5016719;28;20451;-83
2023/05/21 11:37:28;;;;;;;5.73;5.20;;;;;;;21.77;48.24;94541.72;5017123;28;20441;-82
2023/05/21 11:39:58;;;;;;;9.60;5.77;;;;;;;21.57;48.33;94541.72;5016588;28;20458;-83
2023/05/21 11:42:32;;;;;;;6.47;5.00;;;;;;;21.55;48.50;94539.25;5016594;28;21168;-82
2023/05/21 11:45:00;;;;;;;9.30;5.60;;;;;;;21.63;50.36;94541.72;5016948;28;20622;-83
2023/05/21 11:47:28;;;;;;;7.23;5.77;;;;;;;21.63;48.68;94543.56;5016006;28;20486;-83
2023/05/21 11:49:55;;;;;;;8.53;5.83;;;;;;;21.59;49.12;94535.16;4998331;28;20441;-84
2023/05/21 11:52:24;;;;;;;9.27;5.37;;;;;;;21.68;49.98;94540.28;5016365;28;20951;-84
2023/05/21 11:54:53;;;;;;;17.93;5.93;;;;;;;21.67;50.44;94535.94;5016147;28;20940;-84
2023/05/21 11:57:22;;;;;;;6.80;5.10;;;;;;;21.52;49.44;94534.34;5017497;28;20446;-84
2023/05/21 11:59:50;;;;;;;8.87;5.77;;;;;;;21.64;64.88;94529.19;5016175;28;20499;-81
2023/05/21 12:02:18;;;;;;;14.33;5.73;;;;;;;21.88;63.70;94533.88;5017250;28;20536;-80
2023/05/21 12:04:47;;;;;;;8.10;5.30;;;;;;;21.93;58.42;94525.25;5016488;28;20845;-81
2023/05/21 12:07:15;;;;;;;17.40;5.90;;;;;;;22.12;57.72;94526.25;5016393;28;20489;-85
2023/05/21 12:09:43;;;;;;;11.40;5.10;;;;;;;21.92;50.23;94526.25;4981858;28;20463;-87
2023/05/21 12:12:12;;;;;;;10.93;5.27;;;;;;;21.87;50.80;94523.41;5015760;28;20484;-84
2023/05/21 12:14:43;;;;;;;7.23;5.30;;;;;;;21.72;51.51;94520.16;5015864;28;20450;-84
2023/05/21 12:17:12;;;;;;;5.90;5.30;;;;;;;21.73;52.08;94519.13;5015943;28;20513;-84
2023/05/21 12:19:39;;;;;;;12.00;4.70;;;;;;;21.68;52.16;94521.56;5015934;28;20483;-84
2023/05/21 12:22:06;;;;;;;7.70;5.30;;;;;;;21.55;52.25;94523.25;5015953;28;20789;-83
2023/05/21 12:24:34;;;;;;;5.53;5.00;;;;;;;21.46;52.71;94524.47;5015952;28;20867;-84
2023/05/21 12:27:08;;;;;;;10.50;5.20;;;;;;;21.25;53.19;94519.34;5015936;28;20481;-84